createdAt,value
2022-09-30T00:01:57.307Z,13.77
2022-09-30T00:04:43.089Z,12.59
2022-09-30T00:07:28.393Z,13.68
2022-09-30T00:10:15.002Z,12.89
2022-09-30T00:13:00.261Z,13.49
2022-09-30T00:15:47.285Z,13.52
2022-09-30T00:18:33.771Z,12.80
2022-09-30T00:21:19.213Z,13.43
2022-09-30T00:24:05.948Z,13.39
2022-09-30T00:26:53.275Z,13.21
2022-09-30T00:29:38.852Z,13.27
2022-09-30T00:32:24.196Z,12.21
2022-09-30T00:35:09.597Z,12.88
2022-09-30T00:37:55.224Z,13.13
2022-09-30T00:40:41.066Z,12.12
2022-09-30T00:43:53.444Z,12.89
2022-09-30T00:46:44.641Z,13.11
2022-09-30T00:49:30.464Z,13.09
2022-09-30T00:52:15.976Z,13.05
2022-09-30T00:55:05.326Z,12.78
2022-09-30T00:57:51.060Z,12.90
2022-09-30T01:00:37.126Z,12.72
2022-09-30T01:03:23.451Z,12.75
2022-09-30T01:06:10.119Z,11.91
2022-09-30T01:08:55.518Z,12.95
2022-09-30T01:11:41.422Z,12.79
2022-09-30T01:14:28.448Z,13.05
2022-09-30T01:18:02.792Z,13.06
2022-09-30T01:21:07.755Z,12.57
2022-09-30T01:23:56.715Z,13.03
2022-09-30T01:27:05.472Z,13.02
2022-09-30T01:30:05.726Z,11.81
2022-09-30T01:33:01.007Z,12.55
2022-09-30T01:36:10.444Z,12.96
2022-09-30T01:39:14.786Z,12.61
2022-09-30T01:42:18.323Z,11.83
2022-09-30T01:45:29.900Z,13.01
2022-09-30T01:48:34.099Z,12.92
2022-09-30T01:51:32.511Z,11.91
2022-09-30T01:54:33.017Z,13.18
2022-09-30T01:57:48.778Z,13.21
2022-09-30T02:00:38.617Z,13.19
2022-09-30T02:03:42.312Z,11.92
2022-09-30T02:06:38.049Z,13.08
2022-09-30T02:09:34.070Z,13.00
2022-09-30T02:12:23.881Z,11.82
2022-09-30T02:15:14.989Z,12.99
2022-09-30T02:18:20.286Z,12.72
2022-09-30T02:21:08.425Z,13.03
2022-09-30T02:24:00.515Z,13.02
2022-09-30T02:26:49.136Z,11.65
2022-09-30T02:29:39.568Z,13.07
2022-09-30T02:32:31.084Z,11.86
2022-09-30T02:35:35.905Z,13.15
2022-09-30T02:38:31.401Z,13.21
2022-09-30T02:41:23.374Z,13.23
2022-09-30T02:44:09.626Z,13.12
2022-09-30T02:47:34.246Z,13.36
2022-09-30T02:50:33.466Z,12.20
2022-09-30T02:53:33.471Z,13.40
2022-09-30T02:56:31.378Z,13.07
2022-09-30T02:59:17.149Z,13.46
2022-09-30T03:02:03.259Z,13.52
2022-09-30T03:04:51.284Z,12.53
2022-09-30T03:07:37.790Z,13.53
2022-09-30T03:10:24.385Z,12.33
2022-09-30T03:13:21.735Z,13.58
2022-09-30T03:16:22.133Z,13.61
2022-09-30T03:19:29.149Z,13.64
2022-09-30T03:22:33.171Z,13.70
2022-09-30T03:25:33.438Z,13.49
2022-09-30T03:28:42.923Z,13.73
2022-09-30T03:31:40.685Z,12.95
2022-09-30T03:34:52.551Z,13.71
2022-09-30T03:37:45.496Z,13.66
2022-09-30T03:40:37.316Z,13.65
2022-09-30T03:43:31.957Z,13.66
2022-09-30T03:46:23.496Z,13.65
2022-09-30T03:49:14.684Z,12.54
2022-09-30T03:52:05.282Z,13.59
2022-09-30T03:54:53.778Z,13.55
2022-09-30T03:57:39.378Z,12.80
2022-09-30T04:00:24.997Z,13.47
2022-09-30T04:03:10.399Z,13.52
2022-09-30T04:05:55.924Z,12.85
2022-09-30T04:08:41.178Z,13.31
2022-09-30T04:11:26.629Z,13.60
2022-09-30T04:14:12.085Z,13.65
2022-09-30T04:16:58.279Z,13.65
2022-09-30T04:19:44.201Z,13.74
2022-09-30T04:22:29.394Z,13.68
2022-09-30T04:25:14.846Z,12.52
2022-09-30T04:28:00.274Z,13.68
2022-09-30T04:30:45.715Z,13.78
2022-09-30T04:33:31.370Z,12.78
2022-09-30T04:36:17.463Z,12.66
2022-09-30T04:39:02.897Z,13.18
2022-09-30T04:41:49.011Z,13.85
2022-09-30T04:44:35.391Z,13.77
2022-09-30T04:47:20.708Z,13.71
2022-09-30T04:50:06.400Z,13.56
2022-09-30T04:52:52.493Z,13.98
2022-09-30T04:55:38.723Z,14.00
2022-09-30T04:58:24.873Z,13.48
2022-09-30T05:01:19.509Z,13.98
2022-09-30T05:04:05.286Z,12.86
2022-09-30T05:06:50.766Z,13.56
2022-09-30T05:09:36.524Z,12.74
2022-09-30T05:12:22.091Z,13.40
2022-09-30T05:15:08.704Z,13.65
2022-09-30T05:17:54.539Z,12.72
2022-09-30T05:20:40.361Z,13.86
2022-09-30T05:23:27.735Z,12.59
2022-09-30T05:26:13.661Z,12.63
2022-09-30T05:28:59.081Z,12.77
2022-09-30T05:31:44.507Z,13.71
2022-09-30T05:34:30.343Z,12.75
2022-09-30T05:37:15.836Z,13.21
2022-09-30T05:40:01.214Z,12.55
2022-09-30T05:42:47.482Z,13.12
2022-09-30T05:45:32.968Z,13.60
2022-09-30T05:48:18.303Z,12.70
2022-09-30T05:51:03.880Z,13.01
2022-09-30T05:53:49.258Z,13.82
2022-09-30T05:56:34.776Z,13.77
2022-09-30T05:59:20.137Z,14.00
2022-09-30T06:02:05.964Z,14.01
2022-09-30T06:04:51.410Z,14.07
2022-09-30T06:07:37.986Z,13.15
2022-09-30T06:10:24.226Z,13.04
2022-09-30T06:13:10.263Z,13.03
2022-09-30T06:16:00.288Z,13.07
2022-09-30T06:18:45.984Z,13.56
2022-09-30T06:21:32.133Z,14.22
2022-09-30T06:24:17.760Z,13.22
2022-09-30T06:27:03.122Z,14.24
2022-09-30T06:29:48.740Z,13.24
2022-09-30T06:32:34.261Z,14.45
2022-09-30T06:35:20.599Z,14.19
2022-09-30T06:38:06.156Z,14.44
2022-09-30T06:40:51.661Z,14.02
2022-09-30T06:43:49.095Z,13.46
2022-09-30T06:46:53.014Z,13.35
2022-09-30T06:49:48.126Z,14.39
2022-09-30T06:52:35.131Z,13.59
2022-09-30T06:55:22.649Z,14.43
2022-09-30T06:58:13.809Z,13.36
2022-09-30T07:01:06.978Z,13.13
2022-09-30T07:03:57.858Z,13.79
2022-09-30T07:06:43.997Z,14.30
2022-09-30T07:09:29.823Z,13.32
2022-09-30T07:12:15.191Z,14.48
2022-09-30T07:15:00.618Z,14.28
2022-09-30T07:17:51.851Z,14.11
2022-09-30T07:20:37.467Z,14.06
2022-09-30T07:23:27.142Z,13.23
2022-09-30T07:26:22.678Z,14.09
2022-09-30T07:29:08.337Z,13.17
2022-09-30T07:31:54.369Z,14.39
2022-09-30T07:34:44.317Z,13.54
2022-09-30T07:37:36.032Z,14.28
2022-09-30T07:40:21.875Z,14.10
2022-09-30T07:43:07.713Z,14.25
2022-09-30T07:45:55.792Z,14.32
2022-09-30T07:48:44.872Z,13.24
2022-09-30T07:51:36.775Z,12.86
2022-09-30T07:54:25.302Z,14.37
2022-09-30T07:57:11.739Z,14.26
2022-09-30T07:59:57.847Z,14.26
2022-09-30T08:02:43.159Z,14.31
2022-09-30T08:05:28.637Z,14.32
2022-09-30T08:08:16.032Z,13.32
2022-09-30T08:11:02.331Z,13.08
2022-09-30T08:13:52.616Z,14.44
2022-09-30T08:16:37.948Z,13.83
2022-09-30T08:19:24.786Z,14.47
2022-09-30T08:22:10.814Z,14.45
2022-09-30T08:24:56.044Z,14.51
2022-09-30T08:27:41.505Z,14.47
2022-09-30T08:30:27.092Z,13.87
2022-09-30T08:33:12.491Z,13.31
2022-09-30T08:36:12.441Z,14.58
2022-09-30T08:38:58.638Z,13.56
2022-09-30T08:42:19.185Z,14.65
2022-09-30T08:44:52.268Z,14.54
2022-09-30T08:47:48.719Z,14.74
2022-09-30T08:50:37.794Z,14.38
2022-09-30T08:53:11.662Z,13.94
2022-09-30T08:55:45.010Z,14.70
2022-09-30T08:58:21.830Z,14.54
2022-09-30T09:00:53.047Z,14.74
2022-09-30T09:03:20.834Z,14.73
2022-09-30T09:06:01.050Z,14.77
2022-09-30T09:08:52.357Z,14.77
2022-09-30T09:11:43.339Z,14.79
2022-09-30T09:14:40.929Z,14.56
2022-09-30T09:17:31.859Z,14.82
2022-09-30T09:20:15.509Z,14.82
2022-09-30T09:22:45.593Z,14.11
2022-09-30T09:25:19.390Z,14.80
2022-09-30T09:28:16.105Z,14.87
2022-09-30T09:30:54.731Z,13.67
2022-09-30T09:33:27.780Z,14.87
2022-09-30T09:36:19.218Z,14.97
2022-09-30T09:39:27.678Z,15.05
2022-09-30T09:42:07.699Z,15.11
2022-09-30T09:44:45.003Z,15.13
2022-09-30T09:47:17.386Z,14.69
2022-09-30T09:49:58.624Z,15.25
2022-09-30T09:52:43.341Z,15.34
2022-09-30T09:55:12.082Z,14.45
2022-09-30T09:57:40.282Z,15.39
2022-09-30T10:00:27.695Z,15.47
2022-09-30T10:03:23.470Z,15.49
2022-09-30T10:06:03.642Z,14.48
2022-09-30T10:08:33.975Z,15.11
2022-09-30T10:11:18.380Z,14.92
2022-09-30T10:13:45.772Z,15.45
2022-09-30T10:16:25.041Z,15.56
2022-09-30T10:18:52.244Z,15.44
2022-09-30T10:21:25.123Z,14.44
2022-09-30T10:23:52.603Z,15.35
2022-09-30T10:26:22.091Z,15.29
2022-09-30T10:29:02.140Z,15.60
2022-09-30T10:31:38.783Z,14.50
2022-09-30T10:34:25.051Z,15.57
2022-09-30T10:36:53.553Z,14.55
2022-09-30T10:39:27.379Z,15.27
2022-09-30T10:42:08.607Z,14.60
2022-09-30T10:44:49.443Z,15.55
2022-09-30T10:47:19.710Z,14.68
2022-09-30T10:50:00.903Z,15.61
2022-09-30T10:52:31.110Z,15.38
2022-09-30T10:54:59.236Z,15.84
2022-09-30T10:57:31.809Z,15.87
2022-09-30T11:00:00.198Z,15.96
2022-09-30T11:02:56.983Z,15.62
2022-09-30T11:05:24.928Z,16.28
2022-09-30T11:08:02.328Z,15.37
2022-09-30T11:10:51.285Z,16.40
2022-09-30T11:13:29.938Z,15.87
2022-09-30T11:16:15.065Z,15.69
2022-09-30T11:18:56.314Z,16.87
2022-09-30T11:21:29.452Z,16.91
2022-09-30T11:24:05.703Z,16.30
2022-09-30T11:27:02.152Z,16.39
2022-09-30T11:30:01.318Z,16.76
2022-09-30T11:32:59.400Z,17.05
2022-09-30T11:35:48.733Z,16.27
2022-09-30T11:38:33.248Z,16.27
2022-09-30T11:41:17.598Z,16.61
2022-09-30T11:44:05.594Z,17.12
2022-09-30T11:46:55.600Z,16.92
2022-09-30T11:49:55.588Z,16.00
2022-09-30T11:53:00.334Z,17.18
2022-09-30T11:55:57.613Z,17.19
2022-09-30T11:58:41.124Z,16.76
2022-09-30T12:01:30.530Z,17.22
2022-09-30T12:04:08.391Z,16.55
2022-09-30T12:06:44.212Z,16.77
2022-09-30T12:09:22.389Z,16.18
2022-09-30T12:11:52.151Z,16.27
2022-09-30T12:14:42.839Z,17.30
2022-09-30T12:17:32.118Z,17.33
2022-09-30T12:20:07.273Z,17.29
2022-09-30T12:22:42.353Z,16.24
2022-09-30T12:25:21.605Z,16.30
2022-09-30T12:28:24.023Z,17.42
2022-09-30T12:31:00.170Z,16.58
2022-09-30T12:34:04.467Z,17.48
2022-09-30T12:36:43.538Z,17.51
2022-09-30T12:39:41.763Z,17.58
2022-09-30T12:43:05.897Z,17.63
2022-09-30T12:46:14.747Z,17.63
2022-09-30T12:48:44.363Z,17.63
2022-09-30T12:51:31.215Z,17.61
2022-09-30T12:54:13.838Z,17.58
2022-09-30T12:56:46.181Z,17.49
2022-09-30T12:59:14.445Z,17.16
2022-09-30T13:01:42.516Z,16.29
2022-09-30T13:04:16.887Z,16.32
2022-09-30T13:06:46.460Z,17.35
2022-09-30T13:09:16.101Z,17.32
2022-09-30T13:11:55.178Z,16.65
2022-09-30T13:14:26.342Z,16.26
2022-09-30T13:17:06.617Z,17.08
2022-09-30T13:19:41.564Z,17.23
2022-09-30T13:22:20.675Z,17.20
2022-09-30T13:24:57.663Z,17.18
2022-09-30T13:27:43.319Z,16.15
2022-09-30T13:30:13.308Z,16.96
2022-09-30T13:32:43.648Z,17.04
2022-09-30T13:35:35.585Z,17.17
2022-09-30T13:38:14.652Z,17.18
2022-09-30T13:41:03.296Z,17.17
2022-09-30T13:43:30.471Z,17.17
2022-09-30T13:46:04.925Z,16.89
2022-09-30T13:48:41.381Z,16.40
2022-09-30T13:51:14.947Z,17.12
2022-09-30T13:53:51.372Z,17.18
2022-09-30T13:56:23.092Z,17.20
2022-09-30T13:58:56.722Z,17.21
2022-09-30T14:01:42.333Z,17.19
2022-09-30T14:04:31.133Z,17.17
2022-09-30T14:07:04.298Z,16.12
2022-09-30T14:09:58.767Z,17.13
2022-09-30T14:12:52.154Z,17.14
2022-09-30T14:15:49.140Z,17.14
2022-09-30T14:18:22.953Z,17.14
2022-09-30T14:21:28.218Z,17.11
2022-09-30T14:24:09.485Z,17.08
2022-09-30T14:26:36.387Z,17.14
2022-09-30T14:29:43.479Z,17.20
2022-09-30T14:32:20.789Z,16.84
2022-09-30T14:34:49.220Z,17.09
2022-09-30T14:37:31.228Z,16.74
2022-09-30T14:39:59.950Z,16.13
2022-09-30T14:42:33.345Z,17.17
2022-09-30T14:45:06.025Z,16.79
2022-09-30T14:47:44.911Z,17.19
2022-09-30T14:50:17.769Z,17.13
2022-09-30T14:52:47.073Z,17.14
2022-09-30T14:55:42.780Z,16.03
2022-09-30T14:58:22.283Z,16.26
2022-09-30T15:01:00.473Z,17.10
2022-09-30T15:03:29.165Z,17.01
2022-09-30T15:05:58.267Z,14.58
2022-09-30T15:08:25.600Z,15.82
2022-09-30T15:10:55.416Z,15.97
2022-09-30T15:13:26.321Z,16.73
2022-09-30T15:15:54.065Z,16.94
2022-09-30T15:18:28.189Z,15.96
2022-09-30T15:20:59.450Z,16.95
2022-09-30T15:23:31.294Z,16.79
2022-09-30T15:25:58.864Z,16.97
2022-09-30T15:28:26.461Z,16.25
2022-09-30T15:30:58.323Z,16.11
2022-09-30T15:33:32.500Z,16.96
2022-09-30T15:36:05.981Z,15.75
2022-09-30T15:38:37.493Z,16.48
2022-09-30T15:41:08.961Z,15.75
2022-09-30T15:43:40.924Z,16.92
2022-09-30T15:46:28.863Z,16.91
2022-09-30T15:49:29.109Z,16.86
2022-09-30T15:52:20.727Z,16.90
2022-09-30T15:54:48.461Z,16.25
2022-09-30T15:57:51.538Z,16.90
2022-09-30T16:00:40.241Z,16.87
2022-09-30T16:03:08.040Z,16.94
2022-09-30T16:05:35.592Z,16.90
2022-09-30T16:08:09.828Z,16.08
2022-09-30T16:10:37.730Z,16.39
2022-09-30T16:13:07.030Z,16.02
2022-09-30T16:15:41.543Z,15.96
2022-09-30T16:18:19.986Z,16.90
2022-09-30T16:21:05.520Z,16.06
2022-09-30T16:23:38.484Z,15.89
2022-09-30T16:26:16.586Z,16.93
2022-09-30T16:28:43.856Z,16.82
2022-09-30T16:31:15.497Z,16.87
2022-09-30T16:33:43.538Z,16.91
2022-09-30T16:36:11.949Z,16.87
2022-09-30T16:38:39.252Z,15.88
2022-09-30T16:41:06.704Z,16.01
2022-09-30T16:43:34.572Z,15.66
2022-09-30T16:46:02.967Z,16.77
2022-09-30T16:48:30.877Z,16.69
2022-09-30T16:51:12.045Z,15.79
2022-09-30T16:53:39.332Z,16.07
2022-09-30T16:56:19.815Z,16.00
2022-09-30T16:58:47.710Z,16.81
2022-09-30T17:01:20.019Z,16.80
2022-09-30T17:03:48.050Z,16.68
2022-09-30T17:06:18.092Z,16.77
2022-09-30T17:08:45.530Z,16.09
2022-09-30T17:11:13.265Z,16.69
2022-09-30T17:13:42.746Z,16.69
2022-09-30T17:16:10.198Z,15.96
2022-09-30T17:18:37.600Z,15.70
2022-09-30T17:21:05.338Z,16.24
2022-09-30T17:23:32.561Z,15.69
2022-09-30T17:25:59.750Z,16.61
2022-09-30T17:28:26.810Z,16.25
2022-09-30T17:30:54.624Z,16.37
2022-09-30T17:33:22.683Z,15.54
2022-09-30T17:36:00.912Z,15.59
2022-09-30T17:38:29.027Z,16.46
2022-09-30T17:41:15.040Z,16.63
2022-09-30T17:43:42.314Z,16.16
2022-09-30T17:46:09.525Z,16.36
2022-09-30T17:48:39.627Z,15.58
2022-09-30T17:51:08.332Z,16.22
2022-09-30T17:53:36.972Z,16.52
2022-09-30T17:56:14.351Z,15.60
2022-09-30T17:58:42.511Z,16.34
2022-09-30T18:01:10.556Z,16.39
2022-09-30T18:03:37.897Z,16.16
2022-09-30T18:06:07.010Z,16.40
2022-09-30T18:08:36.117Z,16.22
2022-09-30T18:11:04.496Z,15.79
2022-09-30T18:13:32.370Z,16.38
2022-09-30T18:16:03.589Z,15.23
2022-09-30T18:18:33.773Z,16.35
2022-09-30T18:21:03.567Z,15.25
2022-09-30T18:23:30.908Z,16.26
2022-09-30T18:25:58.860Z,15.18
2022-09-30T18:28:26.877Z,16.10
2022-09-30T18:30:54.230Z,16.34
2022-09-30T18:33:25.398Z,15.25
2022-09-30T18:35:52.644Z,16.34
2022-09-30T18:38:20.343Z,15.87
2022-09-30T18:40:52.084Z,15.31
2022-09-30T18:43:19.478Z,16.20
2022-09-30T18:45:54.030Z,16.19
2022-09-30T18:48:22.458Z,16.14
2022-09-30T18:50:51.822Z,15.41
2022-09-30T18:53:22.116Z,15.79
2022-09-30T18:55:51.878Z,16.18
2022-09-30T18:58:23.641Z,16.21
2022-09-30T19:00:50.888Z,16.29
2022-09-30T19:03:19.184Z,16.19
2022-09-30T19:05:46.349Z,16.32
2022-09-30T19:08:15.836Z,16.33
2022-09-30T19:10:43.077Z,15.24
2022-09-30T19:13:10.204Z,15.88
2022-09-30T19:15:38.931Z,15.39
2022-09-30T19:18:10.005Z,15.12
2022-09-30T19:20:38.386Z,15.15
2022-09-30T19:23:09.072Z,15.28
2022-09-30T19:25:38.892Z,15.41
2022-09-30T19:28:06.838Z,16.15
2022-09-30T19:30:34.064Z,15.99
2022-09-30T19:33:01.227Z,16.04
2022-09-30T19:35:38.203Z,15.99
2022-09-30T19:38:08.595Z,14.93
2022-09-30T19:40:37.625Z,15.04
2022-09-30T19:43:05.325Z,15.95
2022-09-30T19:45:33.599Z,15.48
2022-09-30T19:48:01.855Z,15.97
2022-09-30T19:50:33.126Z,14.85
2022-09-30T19:53:01.815Z,15.10
2022-09-30T19:55:29.288Z,15.74
2022-09-30T19:57:56.939Z,15.97
2022-09-30T20:00:24.357Z,15.60
2022-09-30T20:02:53.325Z,14.90
2022-09-30T20:05:21.195Z,14.91
2022-09-30T20:07:51.331Z,14.88
2022-09-30T20:10:18.923Z,15.86
2022-09-30T20:12:46.178Z,15.31
2022-09-30T20:15:31.524Z,14.95
2022-09-30T20:17:58.942Z,15.15
2022-09-30T20:20:35.371Z,15.36
2022-09-30T20:23:03.836Z,15.53
2022-09-30T20:25:31.503Z,15.55
2022-09-30T20:27:58.973Z,16.03
2022-09-30T20:30:29.992Z,15.44
2022-09-30T20:32:57.009Z,14.88
2022-09-30T20:35:24.993Z,15.53
2022-09-30T20:37:53.486Z,15.89
2022-09-30T20:40:20.918Z,14.76
2022-09-30T20:42:48.006Z,14.86
2022-09-30T20:45:15.523Z,15.69
2022-09-30T20:47:47.151Z,14.53
2022-09-30T20:50:14.237Z,14.46
2022-09-30T20:52:41.214Z,14.41
2022-09-30T20:55:09.563Z,15.51
2022-09-30T20:57:36.453Z,14.47
2022-09-30T21:00:04.649Z,14.94
2022-09-30T21:02:31.442Z,14.52
2022-09-30T21:04:58.460Z,15.32
2022-09-30T21:07:26.614Z,15.48
2022-09-30T21:09:53.555Z,14.48
2022-09-30T21:12:20.520Z,14.34
2022-09-30T21:14:47.480Z,14.84
2022-09-30T21:17:14.257Z,15.32
2022-09-30T21:19:41.278Z,15.23
2022-09-30T21:22:08.116Z,15.17
2022-09-30T21:24:35.020Z,15.19
2022-09-30T21:27:05.841Z,15.08
2022-09-30T21:29:33.001Z,15.09
2022-09-30T21:32:00.526Z,14.06
2022-09-30T21:34:28.040Z,15.15
2022-09-30T21:36:54.970Z,14.30
2022-09-30T21:39:21.803Z,14.74
2022-09-30T21:41:48.829Z,14.32
2022-09-30T21:44:16.184Z,14.58
2022-09-30T21:46:48.189Z,15.22
2022-09-30T21:49:21.027Z,14.08
2022-09-30T21:51:47.856Z,14.17
2022-09-30T21:54:15.461Z,14.81
2022-09-30T21:56:43.701Z,14.17
2022-09-30T21:59:11.958Z,14.46
2022-09-30T22:01:39.537Z,14.46
2022-09-30T22:04:06.608Z,14.23
2022-09-30T22:06:33.539Z,15.36
2022-09-30T22:09:01.543Z,14.24
2022-09-30T22:11:30.434Z,14.26
2022-09-30T22:13:59.378Z,14.44
2022-09-30T22:16:29.797Z,15.35
2022-09-30T22:19:00.192Z,14.20
2022-09-30T22:21:31.804Z,14.17
2022-09-30T22:24:01.518Z,15.09
2022-09-30T22:26:29.181Z,14.61
2022-09-30T22:28:59.451Z,15.32
2022-09-30T22:31:29.564Z,14.36
2022-09-30T22:34:31.269Z,15.15
2022-09-30T22:37:16.782Z,15.09
2022-09-30T22:39:43.606Z,14.41
2022-09-30T22:42:10.449Z,15.04
2022-09-30T22:44:37.627Z,15.24
2022-09-30T22:47:08.123Z,15.20
2022-09-30T22:49:35.234Z,15.09
2022-09-30T22:52:02.926Z,14.04
2022-09-30T22:54:30.653Z,15.07
2022-09-30T22:56:59.365Z,14.99
2022-09-30T22:59:27.077Z,14.92
2022-09-30T23:01:54.560Z,14.89
2022-09-30T23:04:22.197Z,14.79
2022-09-30T23:06:50.834Z,13.78
2022-09-30T23:09:18.389Z,14.61
2022-09-30T23:11:46.167Z,14.72
2022-09-30T23:14:13.394Z,14.14
2022-09-30T23:16:40.791Z,13.59
2022-09-30T23:19:07.834Z,14.56
2022-09-30T23:21:35.334Z,14.60
2022-09-30T23:24:02.572Z,13.44
2022-09-30T23:26:31.181Z,14.47
2022-09-30T23:28:59.892Z,13.44
2022-09-30T23:31:27.334Z,13.36
2022-09-30T23:33:57.185Z,14.29
2022-09-30T23:36:29.739Z,13.38
2022-09-30T23:39:12.691Z,14.24
2022-09-30T23:41:40.094Z,13.32
2022-09-30T23:44:09.635Z,13.01
2022-09-30T23:46:36.587Z,14.11
2022-09-30T23:49:03.511Z,13.63
2022-09-30T23:51:33.589Z,13.85
2022-09-30T23:54:02.308Z,14.11
2022-09-30T23:56:29.176Z,13.31
2022-09-30T23:58:55.942Z,13.87
